createdAt,value
2023-05-08T00:01:44.642Z,68.83
2023-05-08T00:04:12.145Z,68.90
2023-05-08T00:06:39.584Z,69.02
2023-05-08T00:09:06.913Z,69.28
2023-05-08T00:11:34.122Z,69.04
2023-05-08T00:14:01.451Z,69.32
2023-05-08T00:16:28.706Z,68.62
2023-05-08T00:18:56.039Z,68.61
2023-05-08T00:21:23.268Z,69.34
2023-05-08T00:23:50.596Z,69.09
2023-05-08T00:26:17.808Z,68.89
2023-05-08T00:28:45.038Z,69.36
2023-05-08T00:31:12.244Z,69.59
2023-05-08T00:33:39.970Z,69.04
2023-05-08T00:36:07.475Z,68.99
2023-05-08T00:38:35.210Z,68.73
2023-05-08T00:41:03.126Z,69.41
2023-05-08T00:43:30.551Z,68.88
2023-05-08T00:46:01.403Z,68.81
2023-05-08T00:48:29.193Z,68.23
2023-05-08T00:50:56.446Z,67.99
2023-05-08T00:53:23.767Z,68.27
2023-05-08T00:55:51.785Z,68.51
2023-05-08T00:58:21.042Z,68.35
2023-05-08T01:00:48.270Z,67.75
2023-05-08T01:03:15.891Z,67.56
2023-05-08T01:05:43.724Z,67.18
2023-05-08T01:08:11.048Z,67.62
2023-05-08T01:10:54.152Z,67.20
2023-05-08T01:13:27.547Z,66.72
2023-05-08T01:16:04.459Z,66.98
2023-05-08T01:18:38.119Z,67.02
2023-05-08T01:21:32.442Z,66.59
2023-05-08T01:24:14.628Z,66.99
2023-05-08T01:26:57.721Z,67.52
2023-05-08T01:29:46.792Z,67.15
2023-05-08T01:32:30.071Z,67.40
2023-05-08T01:35:12.417Z,67.58
2023-05-08T01:37:46.380Z,67.84
2023-05-08T01:40:19.919Z,67.86
2023-05-08T01:42:53.918Z,67.95
2023-05-08T01:45:48.621Z,68.25
2023-05-08T01:48:35.795Z,68.03
2023-05-08T01:51:07.624Z,68.30
2023-05-08T01:53:41.123Z,68.30
2023-05-08T01:56:11.355Z,68.29
2023-05-08T01:58:39.337Z,68.55
2023-05-08T02:01:06.681Z,68.83
2023-05-08T02:03:34.177Z,68.58
2023-05-08T02:06:01.485Z,68.85
2023-05-08T02:08:29.677Z,69.08
2023-05-08T02:10:57.054Z,68.96
2023-05-08T02:13:24.567Z,69.01
2023-05-08T02:15:53.838Z,68.78
2023-05-08T02:18:22.944Z,68.54
2023-05-08T02:20:51.793Z,68.60
2023-05-08T02:23:19.512Z,68.58
2023-05-08T02:25:46.909Z,68.95
2023-05-08T02:28:15.722Z,68.52
2023-05-08T02:30:43.158Z,68.58
2023-05-08T02:33:10.848Z,68.46
2023-05-08T02:35:38.685Z,68.55
2023-05-08T02:38:10.788Z,69.11
2023-05-08T02:40:42.634Z,68.67
2023-05-08T02:43:09.906Z,68.38
2023-05-08T02:45:41.908Z,68.53
2023-05-08T02:48:15.487Z,68.62
2023-05-08T02:50:50.817Z,68.03
2023-05-08T02:53:20.614Z,68.47
2023-05-08T02:55:53.999Z,68.32
2023-05-08T02:58:30.583Z,67.90
2023-05-08T03:01:06.686Z,67.60
2023-05-08T03:03:41.455Z,67.77
2023-05-08T03:06:12.347Z,68.03
2023-05-08T03:08:40.334Z,67.94
2023-05-08T03:11:16.458Z,68.31
2023-05-08T03:13:45.165Z,68.23
2023-05-08T03:16:16.664Z,68.73
2023-05-08T03:18:52.665Z,68.57
2023-05-08T03:21:20.514Z,68.16
2023-05-08T03:23:48.604Z,68.59
2023-05-08T03:26:22.405Z,69.01
2023-05-08T03:28:50.556Z,68.53
2023-05-08T03:31:23.253Z,68.31
2023-05-08T03:33:53.811Z,68.65
2023-05-08T03:36:22.549Z,68.66
2023-05-08T03:38:50.022Z,68.80
2023-05-08T03:41:17.436Z,68.92
2023-05-08T03:43:44.630Z,68.57
2023-05-08T03:46:12.005Z,67.78
2023-05-08T03:48:39.239Z,67.58
2023-05-08T03:51:07.301Z,67.83
2023-05-08T03:53:37.547Z,67.86
2023-05-08T03:56:05.286Z,67.55
2023-05-08T03:59:05.002Z,67.84
2023-05-08T04:01:35.638Z,67.49
2023-05-08T04:04:30.509Z,67.97
2023-05-08T04:07:23.119Z,68.15
2023-05-08T04:10:11.202Z,68.23
2023-05-08T04:12:45.658Z,67.61
2023-05-08T04:15:16.325Z,68.21
2023-05-08T04:17:46.318Z,67.89
2023-05-08T04:20:18.360Z,67.34
2023-05-08T04:22:48.541Z,67.31
2023-05-08T04:25:16.967Z,67.60
2023-05-08T04:27:45.545Z,68.03
2023-05-08T04:30:13.328Z,68.06
2023-05-08T04:32:41.851Z,67.64
2023-05-08T04:35:13.402Z,67.57
2023-05-08T04:37:41.570Z,67.77
2023-05-08T04:40:10.564Z,67.38
2023-05-08T04:42:39.763Z,67.67
2023-05-08T04:45:07.524Z,67.88
2023-05-08T04:47:34.990Z,67.58
2023-05-08T04:50:03.143Z,68.31
2023-05-08T04:52:32.425Z,67.45
2023-05-08T04:55:00.573Z,67.70
2023-05-08T04:57:28.184Z,68.43
2023-05-08T04:59:55.460Z,68.86
2023-05-08T05:02:22.942Z,67.12
2023-05-08T05:04:51.265Z,67.43
2023-05-08T05:07:18.734Z,67.48
2023-05-08T05:09:46.229Z,67.25
2023-05-08T05:12:13.696Z,67.67
2023-05-08T05:14:41.286Z,67.48
2023-05-08T05:17:11.428Z,67.73
2023-05-08T05:19:38.887Z,67.75
2023-05-08T05:22:08.367Z,67.39
2023-05-08T05:24:36.696Z,67.70
2023-05-08T05:27:04.901Z,67.30
2023-05-08T05:29:32.969Z,67.23
2023-05-08T05:32:00.749Z,66.39
2023-05-08T05:34:28.286Z,66.50
2023-05-08T05:36:58.372Z,67.09
2023-05-08T05:39:26.322Z,67.19
2023-05-08T05:41:53.734Z,66.99
2023-05-08T05:44:21.612Z,66.57
2023-05-08T05:46:51.324Z,66.51
2023-05-08T05:49:19.076Z,67.21
2023-05-08T05:51:46.555Z,66.48
2023-05-08T05:54:15.362Z,65.57
2023-05-08T05:56:42.994Z,65.70
2023-05-08T05:59:10.442Z,65.08
2023-05-08T06:01:39.917Z,65.22
2023-05-08T06:04:13.033Z,65.39
2023-05-08T06:06:49.920Z,64.26
2023-05-08T06:09:22.175Z,63.99
2023-05-08T06:11:52.776Z,64.27
2023-05-08T06:14:20.879Z,64.05
2023-05-08T06:16:50.078Z,63.50
2023-05-08T06:19:53.328Z,62.44
2023-05-08T06:22:26.105Z,62.77
2023-05-08T06:24:56.111Z,62.40
2023-05-08T06:27:28.224Z,61.64
2023-05-08T06:29:56.134Z,61.93
2023-05-08T06:32:24.450Z,62.50
2023-05-08T06:34:52.380Z,60.04
2023-05-08T06:37:21.500Z,54.24
2023-05-08T06:39:54.610Z,50.50
2023-05-08T06:42:28.729Z,47.50
2023-05-08T06:44:57.082Z,45.54
2023-05-08T06:47:25.258Z,43.58
2023-05-08T06:50:00.836Z,42.39
2023-05-08T06:52:38.794Z,42.62
2023-05-08T06:55:10.206Z,42.55
2023-05-08T06:57:44.349Z,41.31
2023-05-08T07:00:31.548Z,40.70
2023-05-08T07:03:35.652Z,39.90
2023-05-08T07:06:03.945Z,39.37
2023-05-08T07:08:32.572Z,39.12
2023-05-08T07:11:00.340Z,40.36
2023-05-08T07:13:28.964Z,39.34
2023-05-08T07:15:56.828Z,39.21
2023-05-08T07:18:52.283Z,38.27
2023-05-08T07:21:21.444Z,39.00
2023-05-08T07:23:51.865Z,39.09
2023-05-08T07:26:23.264Z,37.09
2023-05-08T07:28:57.535Z,37.56
2023-05-08T07:31:26.596Z,39.95
2023-05-08T07:33:57.479Z,39.05
2023-05-08T07:36:29.005Z,37.11
2023-05-08T07:38:57.538Z,37.80
2023-05-08T07:41:28.522Z,38.14
2023-05-08T07:43:56.902Z,37.76
2023-05-08T07:46:24.246Z,39.93
2023-05-08T07:48:52.275Z,38.62
2023-05-08T07:51:21.657Z,38.59
2023-05-08T07:53:51.146Z,38.59
2023-05-08T07:56:18.516Z,37.78
2023-05-08T07:58:47.976Z,36.62
2023-05-08T08:01:18.433Z,36.50
2023-05-08T08:03:47.514Z,36.68
2023-05-08T08:06:15.643Z,36.68
2023-05-08T08:08:43.597Z,36.29
2023-05-08T08:11:11.043Z,37.61
2023-05-08T08:13:38.515Z,37.08
2023-05-08T08:16:06.949Z,36.22
2023-05-08T08:18:36.307Z,34.89
2023-05-08T08:21:19.884Z,36.74
2023-05-08T08:24:13.136Z,35.18
2023-05-08T08:26:47.344Z,39.41
2023-05-08T08:29:15.993Z,36.40
2023-05-08T08:31:43.688Z,36.06
2023-05-08T08:34:13.997Z,39.10
2023-05-08T08:36:41.831Z,37.44
2023-05-08T08:39:12.497Z,37.61
2023-05-08T08:41:41.957Z,38.34
2023-05-08T08:44:11.708Z,37.51
2023-05-08T08:46:40.425Z,37.84
2023-05-08T08:49:08.358Z,38.84
2023-05-08T08:51:53.110Z,39.03
2023-05-08T08:54:24.860Z,41.80
2023-05-08T08:56:52.842Z,44.29
2023-05-08T08:59:21.312Z,45.97
2023-05-08T09:01:51.603Z,45.94
2023-05-08T09:04:27.701Z,46.58
2023-05-08T09:06:55.312Z,46.23
2023-05-08T09:09:23.650Z,47.96
2023-05-08T09:11:52.302Z,46.91
2023-05-08T09:14:19.901Z,46.43
2023-05-08T09:16:47.347Z,48.36
2023-05-08T09:19:16.122Z,48.78
2023-05-08T09:25:19.373Z,48.36
2023-05-08T09:27:48.143Z,49.80
2023-05-08T09:30:26.854Z,48.74
2023-05-08T09:32:55.020Z,49.31
2023-05-08T09:35:23.725Z,48.72
2023-05-08T09:37:51.813Z,48.97
2023-05-08T09:40:24.378Z,48.58
2023-05-08T09:42:53.285Z,49.89
2023-05-08T09:45:29.808Z,48.95
2023-05-08T09:47:57.846Z,48.83
2023-05-08T09:50:26.166Z,48.83
2023-05-08T09:52:53.998Z,49.54
2023-05-08T09:55:21.499Z,49.51
2023-05-08T09:57:59.631Z,49.34
2023-05-08T10:00:32.844Z,49.86
2023-05-08T10:03:05.106Z,49.55
2023-05-08T10:05:36.958Z,48.59
2023-05-08T10:08:32.937Z,50.11
2023-05-08T10:11:17.045Z,47.94
2023-05-08T10:13:48.114Z,48.53
2023-05-08T10:16:17.103Z,47.72
2023-05-08T10:18:49.079Z,47.27
2023-05-08T10:21:22.696Z,47.48
2023-05-08T10:23:51.212Z,49.34
2023-05-08T10:26:23.072Z,48.35
2023-05-08T10:29:00.056Z,48.06
2023-05-08T10:31:34.268Z,48.97
2023-05-08T10:34:02.819Z,48.33
2023-05-08T10:36:31.164Z,48.02
2023-05-08T10:38:58.902Z,49.56
2023-05-08T10:41:27.054Z,46.80
2023-05-08T10:43:54.594Z,47.57
2023-05-08T10:46:44.524Z,48.03
2023-05-08T10:49:11.952Z,48.98
2023-05-08T10:51:44.631Z,48.89
2023-05-08T10:54:53.923Z,49.09
2023-05-08T10:57:21.694Z,48.87
2023-05-08T10:59:49.305Z,50.32
2023-05-08T11:02:16.841Z,49.46
2023-05-08T11:04:44.853Z,49.45
2023-05-08T11:07:12.688Z,50.74
2023-05-08T11:09:46.853Z,49.82
2023-05-08T11:12:26.118Z,49.87
2023-05-08T11:15:02.105Z,50.61
2023-05-08T11:17:29.625Z,50.40
2023-05-08T11:20:04.845Z,49.31
2023-05-08T11:22:35.163Z,48.64
2023-05-08T11:25:10.147Z,50.26
2023-05-08T11:27:38.442Z,48.02
2023-05-08T11:30:27.020Z,48.30
2023-05-08T11:33:03.825Z,48.72
2023-05-08T11:35:46.509Z,48.65
2023-05-08T11:38:22.530Z,48.43
2023-05-08T11:40:56.965Z,50.10
2023-05-08T11:43:33.858Z,50.18
2023-05-08T11:46:11.131Z,50.53
2023-05-08T11:48:39.040Z,50.36
2023-05-08T11:51:06.561Z,50.79
2023-05-08T11:53:34.789Z,51.78
2023-05-08T11:56:05.161Z,50.89
2023-05-08T11:58:32.624Z,49.51
2023-05-08T12:01:00.343Z,50.47
2023-05-08T12:03:30.576Z,50.69
2023-05-08T12:05:58.990Z,50.58
2023-05-08T12:08:26.347Z,51.06
2023-05-08T12:10:55.057Z,50.15
2023-05-08T12:13:24.007Z,50.23
2023-05-08T12:15:59.624Z,48.89
2023-05-08T12:18:28.739Z,50.58
2023-05-08T12:21:00.177Z,49.59
2023-05-08T12:23:31.068Z,49.02
2023-05-08T12:26:01.772Z,47.92
2023-05-08T12:28:29.650Z,48.30
2023-05-08T12:30:56.956Z,47.11
2023-05-08T12:33:24.428Z,47.49
2023-05-08T12:35:51.672Z,47.86
2023-05-08T12:38:19.364Z,49.54
2023-05-08T12:40:49.392Z,49.55
2023-05-08T12:43:17.264Z,49.87
2023-05-08T12:45:44.560Z,49.21
2023-05-08T12:48:13.553Z,48.97
2023-05-08T12:50:44.976Z,49.40
2023-05-08T12:53:14.230Z,50.38
2023-05-08T12:55:53.035Z,50.73
2023-05-08T12:58:21.199Z,49.68
2023-05-08T13:00:52.813Z,48.79
2023-05-08T13:03:27.140Z,50.23
2023-05-08T13:05:56.006Z,50.08
2023-05-08T13:08:37.210Z,49.22
2023-05-08T13:11:05.840Z,47.98
2023-05-08T13:13:34.408Z,47.92
2023-05-08T13:16:08.724Z,48.46
2023-05-08T13:18:39.397Z,48.35
2023-05-08T13:21:06.785Z,48.76
2023-05-08T13:23:34.101Z,48.13
2023-05-08T13:26:01.476Z,48.16
2023-05-08T13:28:28.665Z,49.79
2023-05-08T13:30:56.023Z,49.46
2023-05-08T13:33:23.264Z,49.28
2023-05-08T13:35:50.657Z,49.17
2023-05-08T13:38:17.891Z,48.97
2023-05-08T13:40:45.230Z,48.70
2023-05-08T13:43:12.486Z,49.15
2023-05-08T13:45:43.146Z,49.18
2023-05-08T13:48:10.609Z,49.22
2023-05-08T13:50:37.852Z,48.78
2023-05-08T13:53:06.453Z,48.85
2023-05-08T13:55:33.807Z,48.74
2023-05-08T13:58:01.431Z,48.51
2023-05-08T14:00:28.738Z,49.30
2023-05-08T14:02:56.198Z,50.19
2023-05-08T14:05:23.513Z,49.13
2023-05-08T14:07:50.920Z,49.09
2023-05-08T14:10:18.313Z,49.10
2023-05-08T14:12:46.712Z,49.49
2023-05-08T14:15:14.466Z,50.01
2023-05-08T14:17:42.538Z,49.68
2023-05-08T14:20:11.841Z,51.11
2023-05-08T14:22:39.912Z,52.06
2023-05-08T14:25:07.935Z,52.71
2023-05-08T14:27:35.327Z,52.38
2023-05-08T14:30:02.588Z,51.98
2023-05-08T14:32:29.968Z,51.87
2023-05-08T14:34:57.245Z,51.19
2023-05-08T14:37:24.554Z,51.42
2023-05-08T14:39:54.199Z,51.45
2023-05-08T14:42:23.629Z,51.22
2023-05-08T14:44:51.632Z,51.20
2023-05-08T14:47:18.987Z,51.62
2023-05-08T14:49:46.188Z,51.81
2023-05-08T14:52:13.602Z,51.03
2023-05-08T14:54:41.073Z,50.76
2023-05-08T14:57:08.574Z,50.00
2023-05-08T14:59:35.953Z,50.09
2023-05-08T15:02:03.440Z,50.11
2023-05-08T15:04:30.834Z,51.06
2023-05-08T15:06:58.213Z,51.38
2023-05-08T15:09:25.427Z,51.87
2023-05-08T15:11:52.752Z,52.29
2023-05-08T15:14:20.075Z,52.05
2023-05-08T15:16:47.469Z,51.59
2023-05-08T15:19:14.734Z,52.53
2023-05-08T15:21:42.025Z,51.61
2023-05-08T15:24:09.359Z,51.82
2023-05-08T15:26:36.656Z,52.67
2023-05-08T15:29:04.009Z,51.60
2023-05-08T15:31:31.348Z,51.86
2023-05-08T15:33:58.573Z,51.39
2023-05-08T15:36:28.231Z,51.17
2023-05-08T15:38:55.768Z,51.30
2023-05-08T15:41:23.191Z,50.99
2023-05-08T15:43:50.596Z,51.11
2023-05-08T15:46:18.015Z,51.92
2023-05-08T15:48:45.493Z,51.76
2023-05-08T15:51:12.878Z,52.17
2023-05-08T15:53:40.169Z,51.86
2023-05-08T15:56:07.798Z,51.44
2023-05-08T15:58:36.897Z,52.13
2023-05-08T16:01:05.267Z,52.52
2023-05-08T16:03:32.761Z,52.19
2023-05-08T16:06:00.184Z,51.18
2023-05-08T16:08:29.397Z,51.90
2023-05-08T16:10:56.859Z,51.62
2023-05-08T16:13:24.138Z,50.82
2023-05-08T16:15:51.641Z,52.09
2023-05-08T16:18:18.992Z,51.48
2023-05-08T16:20:46.372Z,51.82
2023-05-08T16:23:14.886Z,51.97
2023-05-08T16:25:42.254Z,51.67
2023-05-08T16:28:09.509Z,52.36
2023-05-08T16:30:36.886Z,52.26
2023-05-08T16:33:04.295Z,53.11
2023-05-08T16:35:33.329Z,52.82
2023-05-08T16:38:00.698Z,53.10
2023-05-08T16:40:27.981Z,53.09
2023-05-08T16:42:55.296Z,53.45
2023-05-08T16:45:22.664Z,54.17
2023-05-08T16:47:49.938Z,54.30
2023-05-08T16:50:17.472Z,54.40
2023-05-08T16:52:44.779Z,53.71
2023-05-08T16:55:12.413Z,53.97
2023-05-08T16:57:40.002Z,53.62
2023-05-08T17:00:07.969Z,53.91
2023-05-08T17:02:35.357Z,54.01
2023-05-08T17:05:02.687Z,54.08
2023-05-08T17:07:29.926Z,54.36
2023-05-08T17:09:57.585Z,54.28
2023-05-08T17:12:25.170Z,55.12
2023-05-08T17:14:52.562Z,55.41
2023-05-08T17:17:19.829Z,55.47
2023-05-08T17:19:47.162Z,54.74
2023-05-08T17:22:14.439Z,55.16
2023-05-08T17:24:41.827Z,54.52
2023-05-08T17:27:09.171Z,55.18
2023-05-08T17:29:36.731Z,55.66
2023-05-08T17:32:04.314Z,56.14
2023-05-08T17:34:34.705Z,55.96
2023-05-08T17:37:02.071Z,55.85
2023-05-08T17:39:29.288Z,56.26
2023-05-08T17:41:56.880Z,56.39
2023-05-08T17:44:24.125Z,56.61
2023-05-08T17:46:51.620Z,57.09
2023-05-08T17:49:19.572Z,56.82
2023-05-08T17:51:47.106Z,57.03
2023-05-08T17:54:14.350Z,57.23
2023-05-08T17:56:41.698Z,57.47
2023-05-08T17:59:08.959Z,57.39
2023-05-08T18:01:36.325Z,56.88
2023-05-08T18:04:03.631Z,57.66
2023-05-08T18:06:30.985Z,57.44
2023-05-08T18:08:58.225Z,57.81
2023-05-08T18:11:25.963Z,57.32
2023-05-08T18:13:53.443Z,57.03
2023-05-08T18:16:21.322Z,57.35
2023-05-08T18:18:49.457Z,57.47
2023-05-08T18:21:16.799Z,57.84
2023-05-08T18:23:44.262Z,57.61
2023-05-08T18:26:15.344Z,57.79
2023-05-08T18:28:42.933Z,58.38
2023-05-08T18:31:10.944Z,58.19
2023-05-08T18:33:38.340Z,58.11
2023-05-08T18:36:07.256Z,58.36
2023-05-08T18:38:34.819Z,58.17
2023-05-08T18:41:03.484Z,58.63
2023-05-08T18:43:30.900Z,59.07
2023-05-08T18:46:00.359Z,59.27
2023-05-08T18:48:27.944Z,58.89
2023-05-08T18:50:58.709Z,59.00
2023-05-08T18:53:26.228Z,59.31
2023-05-08T18:55:53.492Z,59.27
2023-05-08T18:58:20.830Z,59.26
2023-05-08T19:00:48.133Z,59.39
2023-05-08T19:03:15.524Z,59.48
2023-05-08T19:05:43.193Z,59.62
2023-05-08T19:08:10.570Z,60.31
2023-05-08T19:10:37.816Z,60.22
2023-05-08T19:13:05.450Z,60.92
2023-05-08T19:15:32.720Z,61.05
2023-05-08T19:18:01.432Z,61.55
2023-05-08T19:20:28.650Z,61.47
2023-05-08T19:22:56.109Z,61.22
2023-05-08T19:25:23.448Z,61.76
2023-05-08T19:27:50.712Z,61.29
2023-05-08T19:30:17.927Z,61.54
2023-05-08T19:32:45.269Z,61.67
2023-05-08T19:35:12.521Z,61.51
2023-05-08T19:37:39.876Z,61.59
2023-05-08T19:40:07.685Z,61.47
2023-05-08T19:42:34.995Z,61.34
2023-05-08T19:45:02.201Z,61.51
2023-05-08T19:47:29.517Z,61.58
2023-05-08T19:49:56.753Z,62.22
2023-05-08T19:52:24.051Z,61.58
2023-05-08T19:54:51.282Z,61.70
2023-05-08T19:57:18.645Z,62.08
2023-05-08T19:59:45.824Z,61.49
2023-05-08T20:02:13.116Z,61.72
2023-05-08T20:04:57.301Z,61.75
2023-05-08T20:07:27.642Z,62.06
2023-05-08T20:09:54.864Z,62.06
2023-05-08T20:12:22.183Z,62.81
2023-05-08T20:14:49.508Z,62.63
2023-05-08T20:17:16.840Z,62.57
2023-05-08T20:19:44.423Z,62.47
2023-05-08T20:22:11.913Z,63.09
2023-05-08T20:24:39.110Z,63.33
2023-05-08T20:27:06.357Z,63.23
2023-05-08T20:29:33.729Z,62.94
2023-05-08T20:32:01.106Z,62.80
2023-05-08T20:34:29.369Z,62.57
2023-05-08T20:36:59.242Z,62.52
2023-05-08T20:39:27.095Z,62.83
2023-05-08T20:41:54.312Z,62.80
2023-05-08T20:44:21.590Z,62.55
2023-05-08T20:46:48.877Z,62.25
2023-05-08T20:49:17.226Z,62.28
2023-05-08T20:51:44.492Z,62.45
2023-05-08T20:54:11.747Z,62.19
2023-05-08T20:56:38.921Z,62.31
2023-05-08T20:59:06.281Z,62.31
2023-05-08T21:01:33.490Z,62.43
2023-05-08T21:04:00.788Z,62.74
2023-05-08T21:06:27.998Z,63.19
2023-05-08T21:08:55.337Z,63.28
2023-05-08T21:11:22.516Z,62.70
2023-05-08T21:13:49.821Z,63.26
2023-05-08T21:16:17.159Z,63.44
2023-05-08T21:18:44.574Z,63.24
2023-05-08T21:21:16.104Z,62.31
2023-05-08T21:23:43.476Z,62.01
2023-05-08T21:26:10.710Z,61.87
2023-05-08T21:28:38.087Z,62.54
2023-05-08T21:31:05.942Z,61.77
2023-05-08T21:33:33.906Z,62.10
2023-05-08T21:36:01.206Z,61.83
2023-05-08T21:38:28.498Z,61.92
2023-05-08T21:40:55.907Z,61.99
2023-05-08T21:43:23.229Z,62.82
2023-05-08T21:45:50.517Z,62.96
2023-05-08T21:48:17.857Z,63.24
2023-05-08T21:50:45.106Z,62.80
2023-05-08T21:53:12.372Z,62.72
2023-05-08T21:55:39.606Z,61.92
2023-05-08T21:58:06.988Z,62.35
2023-05-08T22:00:34.233Z,62.22
2023-05-08T22:03:01.576Z,62.07
2023-05-08T22:05:28.812Z,63.46
2023-05-08T22:07:56.173Z,64.61
2023-05-08T22:10:25.559Z,64.77
2023-05-08T22:12:52.867Z,65.11
2023-05-08T22:15:29.834Z,64.97
2023-05-08T22:17:58.484Z,64.57
2023-05-08T22:20:25.920Z,64.91
2023-05-08T22:22:53.270Z,64.95
2023-05-08T22:25:22.008Z,64.79
2023-05-08T22:27:49.448Z,64.92
2023-05-08T22:30:16.690Z,64.95
2023-05-08T22:32:44.027Z,64.57
2023-05-08T22:35:11.476Z,65.62
2023-05-08T22:37:38.981Z,66.33
2023-05-08T22:40:07.025Z,66.82
2023-05-08T22:42:34.296Z,66.95
2023-05-08T22:45:01.500Z,67.23
2023-05-08T22:47:28.865Z,67.13
2023-05-08T22:49:56.606Z,67.84
2023-05-08T22:52:23.924Z,67.96
2023-05-08T22:54:51.108Z,68.04
2023-05-08T22:57:18.382Z,68.29
2023-05-08T22:59:45.607Z,68.54
2023-05-08T23:02:13.030Z,68.73
2023-05-08T23:04:40.232Z,68.24
2023-05-08T23:07:07.562Z,68.10
2023-05-08T23:09:34.910Z,68.62
2023-05-08T23:12:02.184Z,68.39
2023-05-08T23:14:29.374Z,68.37
2023-05-08T23:16:56.762Z,69.40
2023-05-08T23:19:23.969Z,69.59
2023-05-08T23:21:51.181Z,68.68
2023-05-08T23:24:19.843Z,68.24
2023-05-08T23:26:49.685Z,68.71
2023-05-08T23:29:16.911Z,68.83
2023-05-08T23:31:44.153Z,68.06
2023-05-08T23:34:11.322Z,67.36
2023-05-08T23:36:38.620Z,66.85
2023-05-08T23:39:06.654Z,66.83
2023-05-08T23:41:34.197Z,66.96
2023-05-08T23:44:01.433Z,66.97
2023-05-08T23:46:28.772Z,67.10
2023-05-08T23:48:56.047Z,67.34
2023-05-08T23:51:23.364Z,67.35
2023-05-08T23:53:50.937Z,67.41
2023-05-08T23:56:18.205Z,66.63
2023-05-08T23:58:45.449Z,66.63
